createdAt,value
2019-04-07T00:00:34.284Z,28.73
2019-04-07T00:05:39.602Z,29.57
2019-04-07T00:10:46.853Z,29.17
2019-04-07T00:15:52.379Z,29.00
2019-04-07T00:20:57.830Z,28.43
2019-04-07T00:26:04.131Z,29.47
2019-04-07T00:31:09.763Z,28.93
2019-04-07T00:36:35.033Z,28.87
2019-04-07T00:41:41.762Z,30.50
2019-04-07T00:46:47.655Z,28.40
2019-04-07T00:51:54.699Z,28.90
2019-04-07T00:56:59.919Z,28.00
2019-04-07T01:02:24.680Z,28.97
2019-04-07T01:07:30.112Z,28.57
2019-04-07T01:12:35.843Z,28.60
2019-04-07T01:18:01.098Z,29.50
2019-04-07T01:23:07.305Z,29.97
2019-04-07T01:28:32.826Z,31.73
2019-04-07T01:33:38.914Z,32.63
2019-04-07T01:38:44.497Z,31.63
2019-04-07T01:49:47.643Z,32.53
2019-04-07T01:55:09.454Z,32.67
2019-04-07T02:00:25.795Z,30.67
2019-04-07T02:05:58.696Z,33.03
2019-04-07T02:11:24.962Z,31.57
2019-04-07T02:22:27.242Z,31.70
2019-04-07T02:27:52.100Z,32.53
2019-04-07T02:33:13.286Z,29.90
2019-04-07T02:38:39.237Z,33.17
2019-04-07T02:43:57.907Z,30.33
2019-04-07T02:49:08.899Z,28.80
2019-04-07T03:00:07.790Z,31.73
2019-04-07T03:05:15.550Z,31.20
2019-04-07T03:10:35.106Z,31.77
2019-04-07T03:15:41.832Z,34.10
2019-04-07T03:20:59.413Z,32.63
2019-04-07T03:26:13.404Z,35.83
2019-04-07T03:31:50.439Z,33.30
2019-04-07T03:37:25.943Z,31.40
2019-04-07T03:42:14.528Z,33.43
2019-04-07T03:47:41.744Z,32.77
2019-04-07T03:52:48.994Z,29.73
2019-04-07T03:57:56.939Z,31.03
2019-04-07T04:03:25.756Z,31.37
2019-04-07T04:08:38.381Z,34.30
2019-04-07T04:14:00.067Z,36.50
2019-04-07T04:19:06.629Z,35.50
2019-04-07T04:24:12.372Z,32.50
2019-04-07T04:29:17.882Z,34.20
2019-04-07T04:34:43.213Z,34.10
2019-04-07T04:39:49.124Z,35.97
2019-04-07T04:44:54.455Z,37.00
2019-04-07T04:49:59.842Z,39.47
2019-04-07T04:55:07.160Z,38.70
2019-04-07T05:00:32.337Z,38.03
2019-04-07T05:05:38.030Z,40.77
2019-04-07T05:10:43.987Z,39.50
2019-04-07T05:15:50.115Z,40.17
2019-04-07T05:20:55.427Z,43.00
2019-04-07T05:26:12.345Z,41.23
2019-04-07T05:31:17.749Z,41.90
2019-04-07T05:36:43.328Z,41.83
2019-04-07T05:41:50.319Z,43.40
2019-04-07T05:46:56.054Z,40.57
2019-04-07T05:52:05.239Z,43.17
2019-04-07T05:57:30.773Z,44.50
2019-04-07T06:02:47.112Z,45.80
2019-04-07T06:08:21.060Z,44.80
2019-04-07T06:13:13.901Z,39.60
2019-04-07T06:18:19.464Z,36.03
2019-04-07T06:23:27.530Z,36.00
2019-04-07T06:28:31.887Z,33.83
2019-04-07T06:33:56.795Z,30.60
2019-04-07T06:39:02.668Z,29.10
2019-04-07T06:44:13.302Z,33.40
2019-04-07T06:49:16.306Z,31.67
2019-04-07T06:54:41.221Z,29.33
2019-04-07T07:00:04.263Z,31.20
2019-04-07T07:05:27.880Z,30.30
2019-04-07T07:10:59.703Z,29.03
2019-04-07T07:16:17.001Z,29.50
2019-04-07T07:21:39.765Z,32.43
2019-04-07T07:26:46.171Z,30.43
2019-04-07T07:31:53.107Z,30.37
2019-04-07T07:36:58.952Z,32.87
2019-04-07T07:42:05.108Z,31.73
2019-04-07T07:47:11.831Z,31.47
2019-04-07T07:52:19.672Z,29.40
2019-04-07T07:57:24.881Z,29.20
2019-04-07T08:02:31.160Z,29.90
2019-04-07T08:07:37.255Z,25.53
2019-04-07T08:13:04.997Z,26.50
2019-04-07T08:18:08.753Z,24.90
2019-04-07T08:23:15.552Z,24.20
2019-04-07T08:28:35.139Z,25.60
2019-04-07T08:33:39.268Z,26.87
2019-04-07T08:38:44.594Z,24.27
2019-04-07T08:43:53.245Z,22.80
2019-04-07T08:48:58.096Z,21.47
2019-04-07T08:54:04.741Z,23.40
2019-04-07T08:59:13.884Z,25.63
2019-04-07T09:04:17.812Z,24.37
2019-04-07T09:09:32.586Z,23.63
2019-04-07T09:14:30.626Z,23.83
2019-04-07T09:19:49.611Z,24.13
2019-04-07T09:24:56.748Z,23.83
2019-04-07T09:30:09.659Z,24.03
2019-04-07T09:35:17.748Z,23.17
2019-04-07T09:40:30.556Z,21.40
2019-04-07T09:45:40.127Z,23.53
2019-04-07T09:50:47.068Z,22.43
2019-04-07T09:55:56.317Z,23.60
2019-04-07T10:01:12.096Z,20.70
2019-04-07T10:06:34.380Z,20.70
2019-04-07T10:11:47.405Z,21.80
2019-04-07T10:16:54.378Z,21.00
2019-04-07T10:22:03.979Z,20.13
2019-04-07T10:27:13.269Z,20.57
2019-04-07T10:32:31.893Z,20.50
2019-04-07T10:37:50.235Z,20.70
2019-04-07T10:43:05.298Z,19.90
2019-04-07T10:48:17.934Z,20.70
2019-04-07T10:53:40.704Z,19.93
2019-04-07T10:58:48.282Z,20.27
2019-04-07T11:04:13.831Z,20.00
2019-04-07T11:09:26.631Z,19.53
2019-04-07T11:14:42.989Z,20.93
2019-04-07T11:19:55.246Z,19.97
2019-04-07T11:25:22.832Z,19.73
2019-04-07T11:30:33.239Z,18.40
2019-04-07T11:35:57.436Z,19.27
2019-04-07T11:41:24.148Z,26.60
2019-04-07T11:46:47.193Z,20.20
2019-04-07T11:52:03.606Z,19.77
2019-04-07T11:57:10.890Z,18.83
2019-04-07T12:02:19.033Z,19.80
2019-04-07T12:07:42.749Z,19.63
2019-04-07T12:12:49.752Z,19.27
2019-04-07T12:17:56.819Z,18.87
2019-04-07T12:23:03.713Z,19.07
2019-04-07T12:28:20.378Z,20.27
2019-04-07T12:33:28.560Z,17.97
2019-04-07T12:38:45.119Z,17.77
2019-04-07T12:43:53.951Z,17.13
2019-04-07T12:49:18.898Z,17.50
2019-04-07T12:54:29.103Z,18.73
2019-04-07T12:59:39.174Z,18.33
2019-04-07T13:05:06.455Z,17.03
2019-04-07T13:10:16.104Z,16.40
2019-04-07T13:15:26.055Z,17.43
2019-04-07T13:20:42.537Z,17.83
2019-04-07T13:26:07.885Z,17.37
2019-04-07T13:31:21.266Z,17.77
2019-04-07T13:36:28.405Z,18.93
2019-04-07T13:41:44.242Z,18.27
2019-04-07T13:46:49.321Z,19.07
2019-04-07T13:52:11.770Z,18.37
2019-04-07T13:57:26.004Z,16.53
2019-04-07T14:02:35.754Z,16.23
2019-04-07T14:07:58.972Z,16.47
2019-04-07T14:13:24.527Z,16.20
2019-04-07T14:18:32.080Z,16.87
2019-04-07T14:23:44.810Z,17.10
2019-04-07T14:28:54.370Z,17.20
2019-04-07T14:34:01.255Z,16.67
2019-04-07T14:39:22.027Z,16.17
2019-04-07T14:44:29.281Z,16.97
2019-04-07T14:49:45.754Z,15.50
2019-04-07T14:55:07.523Z,14.40
2019-04-07T15:00:30.002Z,16.47
2019-04-07T15:05:49.475Z,16.47
2019-04-07T15:10:56.495Z,16.77
2019-04-07T15:16:02.318Z,19.53
2019-04-07T15:21:08.154Z,15.80
2019-04-07T15:26:15.760Z,13.73
2019-04-07T15:31:21.921Z,14.93
2019-04-07T15:36:27.587Z,16.67
2019-04-07T15:41:33.073Z,14.97
2019-04-07T15:46:38.035Z,15.67
2019-04-07T15:51:43.350Z,15.03
2019-04-07T15:56:50.162Z,16.70
2019-04-07T16:01:57.294Z,15.63
2019-04-07T16:07:02.790Z,18.87
2019-04-07T16:12:08.026Z,17.03
2019-04-07T16:17:13.212Z,17.57
2019-04-07T16:22:18.476Z,15.90
2019-04-07T16:27:23.961Z,19.20
2019-04-07T16:32:30.782Z,19.00
2019-04-07T16:37:37.555Z,18.27
2019-04-07T16:42:53.849Z,25.80
2019-04-07T16:47:49.986Z,29.97
2019-04-07T16:52:55.364Z,32.00
2019-04-07T16:58:02.016Z,32.13
2019-04-07T17:03:09.941Z,33.33
2019-04-07T17:08:19.577Z,30.93
2019-04-07T17:13:32.099Z,27.17
2019-04-07T17:18:40.920Z,22.63
2019-04-07T17:23:47.502Z,22.07
2019-04-07T17:28:55.702Z,24.87
2019-04-07T17:34:00.685Z,22.67
2019-04-07T17:39:28.599Z,24.00
2019-04-07T17:44:41.460Z,30.10
2019-04-07T17:50:04.532Z,44.60
2019-04-07T17:55:28.605Z,33.60
2019-04-07T18:00:40.927Z,37.10
2019-04-07T18:05:57.735Z,33.43
2019-04-07T18:11:12.987Z,34.50
2019-04-07T18:16:35.312Z,33.13
2019-04-07T18:21:52.765Z,31.53
2019-04-07T18:27:01.792Z,33.57
2019-04-07T18:37:32.406Z,25.07
2019-04-07T18:42:51.380Z,22.13
2019-04-07T18:48:14.695Z,26.07
2019-04-07T18:53:22.113Z,28.07
2019-04-07T18:58:28.839Z,26.97
2019-04-07T19:03:51.922Z,43.17
2019-04-07T19:09:00.999Z,37.80
2019-04-07T19:14:30.798Z,37.93
2019-04-07T19:19:21.961Z,41.07
2019-04-07T19:24:44.828Z,45.50
2019-04-07T19:30:11.610Z,47.17
2019-04-07T19:35:16.207Z,46.60
2019-04-07T19:40:32.087Z,59.60
2019-04-07T19:45:48.950Z,82.53
2019-04-07T19:51:12.468Z,61.43
2019-04-07T19:56:25.229Z,44.17
2019-04-07T20:01:48.676Z,34.30
2019-04-07T20:07:13.659Z,28.53
2019-04-07T20:12:20.696Z,26.73
2019-04-07T20:17:34.361Z,27.87
2019-04-07T20:22:44.426Z,29.27
2019-04-07T20:27:55.743Z,28.90
2019-04-07T20:33:19.150Z,32.23
2019-04-07T20:38:27.650Z,34.23
2019-04-07T20:43:43.570Z,35.47
2019-04-07T20:48:50.311Z,35.73
2019-04-07T20:54:03.467Z,35.17
2019-04-07T20:59:09.779Z,32.67
2019-04-07T21:04:17.990Z,30.80
2019-04-07T21:09:25.649Z,28.70
2019-04-07T21:14:35.206Z,26.20
2019-04-07T21:19:57.691Z,26.57
2019-04-07T21:25:23.891Z,25.73
2019-04-07T21:30:29.110Z,25.93
2019-04-07T21:35:42.654Z,24.70
2019-04-07T21:40:50.155Z,25.10
2019-04-07T21:46:00.444Z,24.80
2019-04-07T21:51:25.425Z,26.00
2019-04-07T21:56:34.786Z,27.57
2019-04-07T22:02:01.295Z,28.90
2019-04-07T22:07:11.220Z,29.47
2019-04-07T22:12:16.790Z,28.63
2019-04-07T22:17:41.160Z,30.60
2019-04-07T22:22:47.136Z,30.07
2019-04-07T22:27:55.528Z,32.10
2019-04-07T22:33:24.277Z,32.83
2019-04-07T22:38:27.338Z,31.83
2019-04-07T22:43:32.738Z,32.50
2019-04-07T22:48:38.479Z,31.60
2019-04-07T22:53:43.961Z,30.40
2019-04-07T22:58:51.949Z,32.43
2019-04-07T23:03:56.853Z,31.10
2019-04-07T23:09:02.033Z,29.60
2019-04-07T23:14:07.510Z,31.47
2019-04-07T23:19:12.878Z,31.83
2019-04-07T23:24:19.144Z,34.83
2019-04-07T23:29:24.799Z,31.40
2019-04-07T23:34:30.973Z,36.67
2019-04-07T23:39:36.535Z,34.43
2019-04-07T23:44:41.813Z,32.13
2019-04-07T23:49:46.963Z,33.07
2019-04-07T23:55:11.479Z,37.53
